Time;durP1;ratioP1;P1;durP2;ratioP2;P2;SDS_P1;SDS_P2;PMS_P1;PMS_P2;Temp;Humidity;BMP_temperature;BMP_pressure;BME280_temperature;BME280_humidity;BME280_pressure;Samples;Min_cycle;Max_cycle;Signal;HPM_P1;HPM_P2
2023/10/01 00:01:42;;;;;;;;;;;21.80;51.70;;;;;;1559243;75;1947;-60
2023/10/01 00:03:44;;;;;;;;;;;21.80;51.20;;;;;;1553788;75;761;-60
2023/10/01 00:05:46;;;;;;;;;;;21.70;51.20;;;;;;1556793;75;827;-60
2023/10/01 00:07:51;;;;;;;;;;;21.80;51.00;;;;;;1561309;75;796;-60
2023/10/01 00:09:51;;;;;;;;;;;21.80;51.40;;;;;;1550671;75;1693;-61
2023/10/01 00:11:53;;;;;;;;;;;21.70;51.20;;;;;;1552097;75;1503;-61
2023/10/01 00:13:56;;;;;;;;;;;21.70;51.20;;;;;;1556762;75;857;-61
2023/10/01 00:15:59;;;;;;;;;;;21.80;51.30;;;;;;1556260;75;810;-61
2023/10/01 00:18:01;;;;;;;;;;;21.80;51.40;;;;;;1561221;75;682;-61
2023/10/01 00:20:12;;;;;;;;;;;21.80;51.30;;;;;;1562160;75;866;-61
2023/10/01 00:22:07;;;;;;;;;;;21.70;51.20;;;;;;1554318;75;1934;-62
2023/10/01 00:24:09;;;;;;;;;;;21.70;51.30;;;;;;1558021;75;727;-61
2023/10/01 00:26:11;;;;;;;;;;;21.70;51.10;;;;;;1564723;75;1306;-61
2023/10/01 00:28:14;;;;;;;;;;;21.70;51.30;;;;;;1560744;75;800;-63
2023/10/01 00:30:16;;;;;;;;;;;21.70;51.00;;;;;;1554990;75;1135;-61
2023/10/01 00:32:18;;;;;;;;;;;21.80;50.70;;;;;;1560001;75;723;-61
2023/10/01 00:34:19;;;;;;;;;;;21.80;51.10;;;;;;1562177;75;725;-62
2023/10/01 00:36:23;;;;;;;;;;;21.80;51.20;;;;;;1561853;75;633;-61
2023/10/01 00:38:26;;;;;;;;;;;21.80;51.20;;;;;;1561754;75;668;-61
2023/10/01 00:40:29;;;;;;;;;;;21.70;51.20;;;;;;1557158;75;1578;-62
2023/10/01 00:42:32;;;;;;;;;;;21.80;51.10;;;;;;1558887;75;1914;-61
2023/10/01 00:44:34;;;;;;;;;;;21.70;50.80;;;;;;1558616;74;1067;-60
2023/10/01 00:46:36;;;;;;;;;;;21.80;50.50;;;;;;1568087;74;708;-60
2023/10/01 00:48:38;;;;;;;;;;;21.70;50.30;;;;;;1561310;74;757;-60
2023/10/01 00:50:40;;;;;;;;;;;21.80;50.60;;;;;;1567552;74;1205;-63
2023/10/01 00:52:41;;;;;;;;;;;21.80;50.80;;;;;;1558132;74;720;-61
2023/10/01 00:54:43;;;;;;;;;;;21.70;50.70;;;;;;1559228;74;1554;-61
2023/10/01 00:56:45;;;;;;;;;;;21.80;50.90;;;;;;1562822;74;718;-61
2023/10/01 00:58:48;;;;;;;;;;;21.70;50.90;;;;;;1566644;74;766;-62
2023/10/01 01:00:52;;;;;;;;;;;21.80;50.70;;;;;;1568708;74;1147;-61
2023/10/01 01:02:57;;;;;;;;;;;21.70;51.00;;;;;;1558673;74;1954;-61
2023/10/01 01:07:20;;;;;;;;;;;21.80;50.60;;;;;;1559036;74;1656;-61
2023/10/01 01:09:22;;;;;;;;;;;21.70;50.30;;;;;;1562265;74;1508;-60
2023/10/01 01:11:26;;;;;;;;;;;21.70;50.70;;;;;;1564706;74;1292;-60
2023/10/01 01:13:33;;;;;;;;;;;21.80;50.80;;;;;;1561262;74;714;-60
2023/10/01 01:15:34;;;;;;;;;;;21.70;51.10;;;;;;1560674;74;1544;-64
2023/10/01 01:17:36;;;;;;;;;;;21.80;51.00;;;;;;1563933;74;932;-59
2023/10/01 01:19:38;;;;;;;;;;;21.80;51.00;;;;;;1570327;74;776;-59
2023/10/01 01:21:42;;;;;;;;;;;21.70;50.90;;;;;;1563530;74;1943;-59
2023/10/01 01:23:46;;;;;;;;;;;21.70;50.40;;;;;;1559968;74;1556;-59
2023/10/01 01:25:52;;;;;;;;;;;21.80;50.70;;;;;;1568476;74;803;-60
2023/10/01 01:27:57;;;;;;;;;;;21.70;50.70;;;;;;1568247;74;1125;-59
2023/10/01 01:29:57;;;;;;;;;;;21.80;51.00;;;;;;1557346;74;1703;-61
2023/10/01 01:32:13;;;;;;;;;;;21.80;51.00;;;;;;1563512;74;1105;-61
2023/10/01 01:34:17;;;;;;;;;;;21.70;50.80;;;;;;1559554;74;1720;-59
2023/10/01 01:36:17;;;;;;;;;;;21.80;50.90;;;;;;1568945;74;1589;-60
2023/10/01 01:38:20;;;;;;;;;;;21.70;50.80;;;;;;1561957;74;781;-59
2023/10/01 01:40:31;;;;;;;;;;;21.70;50.50;;;;;;1560747;74;1090;-61
2023/10/01 01:42:30;;;;;;;;;;;21.70;50.60;;;;;;1563792;74;1930;-60
2023/10/01 01:44:32;;;;;;;;;;;21.70;50.90;;;;;;1564869;74;687;-59
2023/10/01 01:46:34;;;;;;;;;;;21.70;50.70;;;;;;1551754;74;1086;-59
2023/10/01 01:48:42;;;;;;;;;;;21.70;50.80;;;;;;1553028;75;799;-60
2023/10/01 01:50:41;;;;;;;;;;;21.70;50.90;;;;;;1547058;75;1647;-61
2023/10/01 01:52:44;;;;;;;;;;;21.70;50.70;;;;;;1545358;75;1062;-61
2023/10/01 01:54:45;;;;;;;;;;;21.70;51.00;;;;;;1550339;75;734;-60
2023/10/01 01:56:48;;;;;;;;;;;21.70;50.80;;;;;;1553604;75;738;-61
2023/10/01 01:58:51;;;;;;;;;;;21.70;50.90;;;;;;1552322;75;893;-61
2023/10/01 02:03:14;;;;;;;;;;;21.70;51.10;;;;;;1520296;75;1938;-60
2023/10/01 02:05:17;;;;;;;;;;;21.80;52.00;;;;;;1554840;75;1563;-60
2023/10/01 02:07:21;;;;;;;;;;;21.80;52.70;;;;;;1551893;75;770;-64
2023/10/01 02:09:24;;;;;;;;;;;21.70;52.30;;;;;;1546137;75;917;-63
2023/10/01 02:11:26;;;;;;;;;;;21.80;52.60;;;;;;1554925;75;2031;-61
2023/10/01 02:13:29;;;;;;;;;;;21.80;51.70;;;;;;1545916;75;744;-60
2023/10/01 02:15:32;;;;;;;;;;;21.80;51.50;;;;;;1551938;75;725;-60
2023/10/01 02:17:35;;;;;;;;;;;21.80;51.50;;;;;;1554819;75;689;-60
2023/10/01 02:19:37;;;;;;;;;;;21.80;51.70;;;;;;1551375;75;1576;-60
2023/10/01 02:21:48;;;;;;;;;;;21.80;51.70;;;;;;1548160;75;1114;-61
2023/10/01 02:23:45;;;;;;;;;;;21.80;51.60;;;;;;1554569;75;1929;-61
2023/10/01 02:25:47;;;;;;;;;;;21.80;51.50;;;;;;1553513;75;835;-60
2023/10/01 02:28:06;;;;;;;;;;;21.80;51.60;;;;;;1550976;75;755;-60
2023/10/01 02:32:14;;;;;;;;;;;21.80;51.50;;;;;;1546965;75;2025;-61
2023/10/01 02:34:17;;;;;;;;;;;21.80;51.90;;;;;;1553044;75;2035;-60
2023/10/01 02:36:23;;;;;;;;;;;21.70;52.00;;;;;;1552704;75;772;-60
2023/10/01 02:40:40;;;;;;;;;;;21.70;52.10;;;;;;1540481;75;1134;-60
2023/10/01 02:42:43;;;;;;;;;;;21.70;52.00;;;;;;1545378;75;1920;-60
2023/10/01 02:44:47;;;;;;;;;;;21.80;51.90;;;;;;1552053;75;1887;-60
2023/10/01 02:46:50;;;;;;;;;;;21.80;52.00;;;;;;1550561;75;1314;-60
2023/10/01 02:48:54;;;;;;;;;;;21.70;52.20;;;;;;1551483;75;692;-59
2023/10/01 02:50:56;;;;;;;;;;;21.80;52.30;;;;;;1546419;75;1755;-63
2023/10/01 02:53:02;;;;;;;;;;;21.80;52.30;;;;;;1548446;75;737;-61
2023/10/01 02:55:17;;;;;;;;;;;21.80;52.30;;;;;;1548022;75;1680;-60
2023/10/01 02:57:23;;;;;;;;;;;21.80;52.30;;;;;;1545789;75;1964;-61
2023/10/01 02:59:18;;;;;;;;;;;21.80;52.20;;;;;;1539541;75;1678;-62
2023/10/01 03:01:21;;;;;;;;;;;21.80;52.00;;;;;;1544226;75;1513;-61
2023/10/01 03:03:32;;;;;;;;;;;21.80;52.30;;;;;;1541948;75;1908;-62
2023/10/01 03:05:36;;;;;;;;;;;21.70;52.10;;;;;;1548282;75;723;-61
2023/10/01 03:07:38;;;;;;;;;;;21.80;51.90;;;;;;1538448;75;1702;-61
2023/10/01 03:09:41;;;;;;;;;;;21.70;52.30;;;;;;1543751;75;711;-63
2023/10/01 03:11:44;;;;;;;;;;;21.70;52.20;;;;;;1554798;75;1122;-62
2023/10/01 03:13:49;;;;;;;;;;;21.80;52.00;;;;;;1551152;75;756;-60
2023/10/01 03:16:40;;;;;;;;;;;21.80;52.10;;;;;;1548797;75;1185;-61
2023/10/01 03:17:58;;;;;;;;;;;21.80;52.10;;;;;;1553854;75;1415;-60
2023/10/01 03:20:13;;;;;;;;;;;21.80;52.10;;;;;;1548609;75;855;-60
2023/10/01 03:24:09;;;;;;;;;;;21.80;52.10;;;;;;1548201;75;1913;-62
2023/10/01 03:26:10;;;;;;;;;;;21.70;52.00;;;;;;1550249;75;1670;-62
2023/10/01 03:28:25;;;;;;;;;;;21.70;52.00;;;;;;1552677;75;711;-64
2023/10/01 03:30:21;;;;;;;;;;;21.90;52.10;;;;;;1547323;75;1422;-62
2023/10/01 03:32:28;;;;;;;;;;;21.70;52.00;;;;;;1549174;75;1648;-61
2023/10/01 03:34:30;;;;;;;;;;;21.70;52.00;;;;;;1552804;75;747;-61
2023/10/01 03:36:32;;;;;;;;;;;21.80;52.00;;;;;;1551026;75;949;-62
2023/10/01 03:38:36;;;;;;;;;;;21.80;51.80;;;;;;1544667;75;799;-62
2023/10/01 03:42:58;;;;;;;;;;;21.80;52.00;;;;;;1552470;75;1903;-62
2023/10/01 03:47:04;;;;;;;;;;;21.80;52.00;;;;;;1553323;74;1135;-60
2023/10/01 03:53:51;;;;;;;;;;;21.80;51.80;;;;;;1563790;75;1676;-60
2023/10/01 03:55:55;;;;;;;;;;;21.70;51.70;;;;;;1565420;74;792;-60
2023/10/01 03:58:42;;;;;;;;;;;21.70;51.60;;;;;;1560152;74;1606;-59
2023/10/01 04:00:28;;;;;;;;;;;21.70;51.80;;;;;;1537228;74;1148;-62
2023/10/01 04:02:26;;;;;;;;;;;21.80;51.50;;;;;;1552939;74;1238;-61
2023/10/01 04:04:11;;;;;;;;;;;21.70;51.60;;;;;;1551034;74;1925;-60
2023/10/01 04:06:12;;;;;;;;;;;21.70;51.50;;;;;;1549643;74;1567;-61
2023/10/01 04:08:14;;;;;;;;;;;21.70;51.50;;;;;;1564965;74;813;-60
2023/10/01 04:10:28;;;;;;;;;;;21.70;51.70;;;;;;1558764;74;1176;-61
2023/10/01 04:12:20;;;;;;;;;;;21.70;51.60;;;;;;1555419;74;1659;-60
2023/10/01 04:14:23;;;;;;;;;;;21.70;51.30;;;;;;1562543;74;785;-60
2023/10/01 04:16:25;;;;;;;;;;;21.70;51.50;;;;;;1557258;74;801;-61
2023/10/01 04:18:28;;;;;;;;;;;21.70;51.30;;;;;;1562025;75;735;-61
2023/10/01 04:20:31;;;;;;;;;;;21.70;51.60;;;;;;1559724;74;1137;-62
2023/10/01 04:22:36;;;;;;;;;;;21.70;51.20;;;;;;1555744;74;1905;-60
2023/10/01 04:24:36;;;;;;;;;;;21.70;51.30;;;;;;1557751;74;1673;-63
2023/10/01 04:26:38;;;;;;;;;;;21.70;51.50;;;;;;1530675;77;1475;-60
2023/10/01 04:28:46;;;;;;;;;;;21.70;51.50;;;;;;1527058;76;702;-59
2023/10/01 04:30:56;;;;;;;;;;;21.70;51.10;;;;;;1522102;76;1182;-60
2023/10/01 04:32:58;;;;;;;;;;;21.70;51.30;;;;;;1521940;76;1439;-60
2023/10/01 04:35:01;;;;;;;;;;;21.70;51.50;;;;;;1523273;76;712;-61
2023/10/01 04:37:03;;;;;;;;;;;21.80;51.10;;;;;;1523550;76;902;-60
2023/10/01 04:39:05;;;;;;;;;;;21.70;51.30;;;;;;1520682;76;1467;-60
2023/10/01 04:41:07;;;;;;;;;;;21.80;51.30;;;;;;1529251;76;1150;-61
2023/10/01 04:43:10;;;;;;;;;;;21.70;51.20;;;;;;1493626;77;1906;-62
2023/10/01 04:45:22;;;;;;;;;;;21.70;51.10;;;;;;1507141;77;675;-60
2023/10/01 04:47:40;;;;;;;;;;;21.70;51.30;;;;;;1502029;77;1589;-61
2023/10/01 04:49:46;;;;;;;;;;;21.70;51.00;;;;;;1497541;77;1904;-60
2023/10/01 04:51:47;;;;;;;;;;;21.70;51.50;;;;;;1508202;77;1172;-61
2023/10/01 04:53:51;;;;;;;;;;;21.70;51.30;;;;;;1507605;77;1555;-61
2023/10/01 04:56:01;;;;;;;;;;;21.80;52.40;;;;;;1566338;74;1042;-61
2023/10/01 04:58:01;;;;;;;;;;;21.70;52.80;;;;;;1558462;74;1169;-59
2023/10/01 05:00:10;;;;;;;;;;;21.70;53.40;;;;;;1568935;74;761;-64
2023/10/01 05:02:21;;;;;;;;;;;21.80;53.10;;;;;;1554765;74;1601;-60
2023/10/01 05:04:14;;;;;;;;;;;21.70;52.40;;;;;;1557174;74;1917;-61
2023/10/01 05:06:22;;;;;;;;;;;21.70;51.80;;;;;;1563890;74;754;-62
2023/10/01 05:08:21;;;;;;;;;;;21.80;51.60;;;;;;1568157;74;1572;-63
2023/10/01 05:10:26;;;;;;;;;;;21.70;51.80;;;;;;1564276;74;1181;-65
2023/10/01 05:12:30;;;;;;;;;;;21.70;51.80;;;;;;1569798;74;1653;-61
2023/10/01 05:14:32;;;;;;;;;;;21.70;51.80;;;;;;1559735;74;1858;-60
2023/10/01 05:16:38;;;;;;;;;;;21.70;51.50;;;;;;1564198;74;731;-61
2023/10/01 05:18:37;;;;;;;;;;;21.70;51.60;;;;;;1560419;74;1388;-61
2023/10/01 05:20:41;;;;;;;;;;;21.80;51.70;;;;;;1558795;74;1195;-60
2023/10/01 05:22:51;;;;;;;;;;;21.70;51.80;;;;;;1565112;74;1444;-61
2023/10/01 05:24:52;;;;;;;;;;;21.70;51.90;;;;;;1567268;74;1911;-63
2023/10/01 05:26:54;;;;;;;;;;;21.70;52.00;;;;;;1555806;74;637;-61
2023/10/01 05:28:57;;;;;;;;;;;21.70;52.20;;;;;;1556829;74;689;-61
2023/10/01 05:30:59;;;;;;;;;;;21.70;51.90;;;;;;1560083;74;1125;-61
2023/10/01 05:33:05;;;;;;;;;;;21.70;52.00;;;;;;1557356;74;770;-60
2023/10/01 05:35:15;;;;;;;;;;;21.80;52.00;;;;;;1557464;74;1582;-61
2023/10/01 05:37:12;;;;;;;;;;;21.70;52.30;;;;;;1556408;74;1529;-62
2023/10/01 05:39:16;;;;;;;;;;;21.70;52.00;;;;;;1560907;74;1831;-60
2023/10/01 05:41:29;;;;;;;;;;;21.80;52.20;;;;;;1561748;74;1720;-61
2023/10/01 05:43:23;;;;;;;;;;;21.70;52.20;;;;;;1559028;74;1928;-60
2023/10/01 05:45:36;;;;;;;;;;;21.70;52.10;;;;;;1567854;74;1534;-63
2023/10/01 05:48:18;;;;;;;;;;;21.70;52.50;;;;;;1552024;74;1641;-61
2023/10/01 05:49:31;;;;;;;;;;;21.70;52.50;;;;;;1532003;75;1543;-61
2023/10/01 05:51:56;;;;;;;;;;;21.80;52.30;;;;;;1548012;75;1237;-61
2023/10/01 05:53:36;;;;;;;;;;;21.70;52.50;;;;;;1531134;75;1443;-65
2023/10/01 05:55:38;;;;;;;;;;;21.70;52.70;;;;;;1549813;75;782;-61
2023/10/01 05:57:40;;;;;;;;;;;21.70;52.60;;;;;;1543157;75;792;-60
2023/10/01 05:59:42;;;;;;;;;;;21.70;52.50;;;;;;1548605;75;716;-64
2023/10/01 06:01:44;;;;;;;;;;;21.70;52.50;;;;;;1543589;75;1103;-60
2023/10/01 06:03:48;;;;;;;;;;;21.80;52.60;;;;;;1538468;75;1930;-61
2023/10/01 06:05:58;;;;;;;;;;;21.80;52.70;;;;;;1558648;75;1005;-63
2023/10/01 06:08:13;;;;;;;;;;;21.70;52.60;;;;;;1542763;75;701;-61
2023/10/01 06:10:10;;;;;;;;;;;21.80;52.60;;;;;;1540424;75;1588;-60
2023/10/01 06:12:10;;;;;;;;;;;21.70;52.70;;;;;;1542585;75;1634;-61
2023/10/01 06:16:39;;;;;;;;;;;21.70;52.90;;;;;;1481026;79;1222;-60
2023/10/01 06:18:44;;;;;;;;;;;21.70;52.80;;;;;;1475275;79;1425;-60
2023/10/01 06:20:46;;;;;;;;;;;21.70;52.90;;;;;;1470332;79;1863;-60
2023/10/01 06:22:49;;;;;;;;;;;21.70;52.80;;;;;;1533985;75;790;-60
2023/10/01 06:24:51;;;;;;;;;;;21.70;52.70;;;;;;1545769;75;1908;-60
2023/10/01 06:26:56;;;;;;;;;;;21.70;53.00;;;;;;1540397;75;738;-60
2023/10/01 06:29:04;;;;;;;;;;;21.70;52.80;;;;;;1542489;75;1462;-60
2023/10/01 06:31:03;;;;;;;;;;;21.70;53.10;;;;;;1547712;75;1443;-63
2023/10/01 06:33:05;;;;;;;;;;;21.70;53.20;;;;;;1545418;75;1590;-60
2023/10/01 06:35:14;;;;;;;;;;;21.70;53.10;;;;;;1549960;75;790;-63
2023/10/01 06:37:12;;;;;;;;;;;21.70;53.10;;;;;;1537958;75;1665;-61
2023/10/01 06:39:19;;;;;;;;;;;21.70;53.00;;;;;;1547183;75;824;-61
2023/10/01 06:41:25;;;;;;;;;;;21.70;53.60;;;;;;1540321;75;1601;-61
2023/10/01 06:43:21;;;;;;;;;;;21.70;53.40;;;;;;1543544;75;1905;-58
2023/10/01 06:45:38;;;;;;;;;;;21.80;53.90;;;;;;1536334;75;1499;-59
2023/10/01 06:47:28;;;;;;;;;;;21.80;52.80;;;;;;1517653;76;970;-59
2023/10/01 06:49:29;;;;;;;;;;;21.90;53.40;;;;;;1523432;76;1057;-60
2023/10/01 06:51:43;;;;;;;;;;;21.90;54.00;;;;;;1483953;78;1167;-60
2023/10/01 06:53:45;;;;;;;;;;;21.80;53.70;;;;;;1487178;78;1607;-61
2023/10/01 06:55:47;;;;;;;;;;;21.80;53.50;;;;;;1499216;78;753;-59
2023/10/01 06:57:50;;;;;;;;;;;21.80;53.50;;;;;;1494496;78;770;-60
2023/10/01 06:59:54;;;;;;;;;;;21.80;53.50;;;;;;1513033;76;1516;-64
2023/10/01 07:01:56;;;;;;;;;;;21.80;53.30;;;;;;1514179;76;1628;-60
2023/10/01 07:03:58;;;;;;;;;;;21.80;53.10;;;;;;1510319;76;1925;-63
2023/10/01 07:06:04;;;;;;;;;;;21.80;53.10;;;;;;1499283;77;717;-62
2023/10/01 07:08:04;;;;;;;;;;;21.70;53.20;;;;;;1493769;77;1654;-62
2023/10/01 07:10:10;;;;;;;;;;;21.70;53.40;;;;;;1486790;77;1192;-61
2023/10/01 07:12:09;;;;;;;;;;;21.70;53.50;;;;;;1485055;77;1504;-62
2023/10/01 07:14:14;;;;;;;;;;;21.70;53.50;;;;;;1488097;77;1512;-61
2023/10/01 07:16:35;;;;;;;;;;;21.60;53.40;;;;;;1493190;77;1543;-61
2023/10/01 07:18:23;;;;;;;;;;;21.60;53.40;;;;;;1480885;77;1642;-61
2023/10/01 07:20:25;;;;;;;;;;;21.60;53.50;;;;;;1491758;77;1133;-61
2023/10/01 07:22:38;;;;;;;;;;;21.60;53.60;;;;;;1486773;77;820;-62
2023/10/01 07:24:34;;;;;;;;;;;21.60;53.70;;;;;;1486146;77;1922;-61
2023/10/01 07:26:48;;;;;;;;;;;21.60;53.80;;;;;;1488947;77;808;-61
2023/10/01 07:28:46;;;;;;;;;;;21.50;53.80;;;;;;1488558;77;1579;-62
2023/10/01 07:30:46;;;;;;;;;;;21.60;53.90;;;;;;1488184;77;1834;-61
2023/10/01 07:32:48;;;;;;;;;;;21.60;53.90;;;;;;1492754;77;727;-61
2023/10/01 07:34:58;;;;;;;;;;;21.50;54.00;;;;;;1498892;77;732;-61
2023/10/01 07:36:56;;;;;;;;;;;21.60;54.10;;;;;;1490692;77;1582;-61
2023/10/01 07:38:59;;;;;;;;;;;21.60;54.20;;;;;;1497678;77;725;-62
2023/10/01 07:41:13;;;;;;;;;;;21.60;54.20;;;;;;1498403;77;1169;-61
2023/10/01 07:43:15;;;;;;;;;;;21.60;54.20;;;;;;1495512;77;1524;-61
2023/10/01 07:45:17;;;;;;;;;;;21.60;54.20;;;;;;1552568;74;1941;-61
2023/10/01 07:47:28;;;;;;;;;;;21.60;54.30;;;;;;1557843;74;701;-64
2023/10/01 07:49:49;;;;;;;;;;;21.70;54.40;;;;;;1550822;74;1155;-62
2023/10/01 07:51:51;;;;;;;;;;;21.70;54.40;;;;;;1556400;74;1239;-62
2023/10/01 07:53:53;;;;;;;;;;;21.70;54.50;;;;;;1554649;74;1284;-62
2023/10/01 07:55:58;;;;;;;;;;;21.70;54.60;;;;;;1549211;74;1470;-61
2023/10/01 08:00:25;;;;;;;;;;;21.70;54.70;;;;;;1506801;74;1529;-62
2023/10/01 08:02:13;;;;;;;;;;;21.80;54.70;;;;;;1548735;74;1411;-62
2023/10/01 08:06:41;;;;;;;;;;;21.80;54.70;;;;;;1553658;74;1666;-65
2023/10/01 08:08:47;;;;;;;;;;;21.80;54.70;;;;;;1546871;74;1727;-62
2023/10/01 08:10:44;;;;;;;;;;;21.80;54.70;;;;;;1550115;74;1735;-60
2023/10/01 08:17:20;;;;;;;;;;;21.80;54.90;;;;;;1553776;74;1683;-60
2023/10/01 08:19:22;;;;;;;;;;;21.90;55.00;;;;;;1553262;74;1650;-59
2023/10/01 08:21:36;;;;;;;;;;;21.80;55.00;;;;;;1552888;74;1493;-59
2023/10/01 08:23:30;;;;;;;;;;;21.80;55.00;;;;;;1547285;74;1544;-60
2023/10/01 08:25:32;;;;;;;;;;;21.90;55.00;;;;;;1555249;74;2025;-62
2023/10/01 08:28:08;;;;;;;;;;;21.90;55.00;;;;;;1552429;74;1250;-62
2023/10/01 08:32:08;;;;;;;;;;;21.90;54.90;;;;;;1561356;74;1680;-60
2023/10/01 08:34:28;;;;;;;;;;;22.00;55.00;;;;;;1549562;74;1653;-60
2023/10/01 08:36:13;;;;;;;;;;;22.00;54.90;;;;;;1543864;74;1647;-59
2023/10/01 08:38:15;;;;;;;;;;;21.90;54.80;;;;;;1551405;74;1491;-61
2023/10/01 08:40:17;;;;;;;;;;;22.00;55.00;;;;;;1554400;74;1501;-61
2023/10/01 08:42:19;;;;;;;;;;;21.90;55.00;;;;;;1554776;74;1415;-61
2023/10/01 08:44:30;;;;;;;;;;;22.00;54.90;;;;;;1557327;74;1907;-60
2023/10/01 08:46:31;;;;;;;;;;;22.00;54.90;;;;;;1550475;74;1529;-59
2023/10/01 08:48:36;;;;;;;;;;;22.00;55.00;;;;;;1546948;74;1572;-63
2023/10/01 08:50:36;;;;;;;;;;;22.00;55.00;;;;;;1558331;74;1680;-61
2023/10/01 08:52:52;;;;;;;;;;;22.10;55.20;;;;;;1554169;74;1480;-59
2023/10/01 08:54:39;;;;;;;;;;;22.00;55.10;;;;;;1544604;74;1629;-59
2023/10/01 08:56:44;;;;;;;;;;;22.00;55.10;;;;;;1558410;74;1472;-60
2023/10/01 08:58:52;;;;;;;;;;;22.00;55.00;;;;;;1549008;74;1589;-59
2023/10/01 09:01:12;;;;;;;;;;;22.10;55.20;;;;;;1552306;74;1387;-63
2023/10/01 09:03:26;;;;;;;;;;;22.10;55.10;;;;;;1552338;74;1444;-60
2023/10/01 09:05:25;;;;;;;;;;;22.10;55.10;;;;;;1556859;74;1913;-60
2023/10/01 09:07:26;;;;;;;;;;;22.10;55.20;;;;;;1558146;74;1497;-60
2023/10/01 09:09:51;;;;;;;;;;;22.10;55.20;;;;;;1550922;74;1178;-60
2023/10/01 09:11:35;;;;;;;;;;;22.10;55.20;;;;;;1556705;74;1559;-60
2023/10/01 09:13:36;;;;;;;;;;;22.10;55.00;;;;;;1552527;74;1588;-62
2023/10/01 09:15:43;;;;;;;;;;;22.10;54.90;;;;;;1520118;76;1602;-62
2023/10/01 09:17:56;;;;;;;;;;;22.10;55.00;;;;;;1551020;74;1778;-62
2023/10/01 09:19:50;;;;;;;;;;;22.10;54.90;;;;;;1547391;74;1956;-62
2023/10/01 09:21:49;;;;;;;;;;;22.10;55.50;;;;;;1548266;74;1627;-64
2023/10/01 09:24:12;;;;;;;;;;;22.10;56.00;;;;;;1556547;74;1502;-61
2023/10/01 09:26:01;;;;;;;;;;;22.10;55.70;;;;;;1551702;74;1927;-59
2023/10/01 09:28:29;;;;;;;;;;;22.10;55.50;;;;;;1552387;74;1313;-61
2023/10/01 09:30:31;;;;;;;;;;;22.10;55.30;;;;;;1554344;74;1627;-59
2023/10/01 09:32:53;;;;;;;;;;;22.20;55.30;;;;;;1545345;75;1560;-60
2023/10/01 09:34:58;;;;;;;;;;;22.10;55.50;;;;;;1551214;74;1517;-60
2023/10/01 09:37:35;;;;;;;;;;;22.10;55.50;;;;;;1555384;74;1573;-59
2023/10/01 09:39:41;;;;;;;;;;;22.10;55.40;;;;;;1554494;74;1251;-60
2023/10/01 09:41:41;;;;;;;;;;;22.10;55.50;;;;;;1550458;74;1700;-60
2023/10/01 09:43:43;;;;;;;;;;;22.10;55.30;;;;;;1551471;74;1077;-59
2023/10/01 09:45:49;;;;;;;;;;;22.10;55.50;;;;;;1559646;74;1940;-62
2023/10/01 09:47:56;;;;;;;;;;;22.20;55.50;;;;;;1547251;74;1424;-61
2023/10/01 09:49:55;;;;;;;;;;;22.10;55.40;;;;;;1550318;74;1627;-59
2023/10/01 09:51:58;;;;;;;;;;;22.20;55.30;;;;;;1559640;74;1594;-61
2023/10/01 09:54:03;;;;;;;;;;;22.20;55.20;;;;;;1557812;74;1460;-65
2023/10/01 09:56:06;;;;;;;;;;;22.20;55.50;;;;;;1558590;74;1395;-61
2023/10/01 09:58:10;;;;;;;;;;;22.10;55.50;;;;;;1555057;74;1456;-60
2023/10/01 10:00:17;;;;;;;;;;;22.20;56.00;;;;;;1559654;74;1430;-61
2023/10/01 10:02:27;;;;;;;;;;;22.30;56.00;;;;;;1561913;74;1778;-60
2023/10/01 10:04:24;;;;;;;;;;;22.40;55.30;;;;;;1547901;74;1465;-61
2023/10/01 10:06:26;;;;;;;;;;;22.40;55.10;;;;;;1566149;74;1898;-61
2023/10/01 10:08:34;;;;;;;;;;;22.30;55.00;;;;;;1559278;74;761;-60
2023/10/01 10:10:31;;;;;;;;;;;22.40;55.00;;;;;;1552665;74;1605;-61
2023/10/01 10:12:37;;;;;;;;;;;22.40;55.20;;;;;;1555001;74;657;-61
2023/10/01 10:14:39;;;;;;;;;;;22.40;55.20;;;;;;1557799;74;1265;-61
2023/10/01 10:16:43;;;;;;;;;;;22.30;54.90;;;;;;1552373;74;1457;-57
2023/10/01 10:19:06;;;;;;;;;;;22.30;55.00;;;;;;1538129;74;1741;-59
2023/10/01 10:24:09;;;;;;;;;;;22.30;59.00;;;;;;1553740;74;870;-58
2023/10/01 10:26:14;;;;;;;;;;;22.30;57.40;;;;;;1547768;75;1586;-60
2023/10/01 10:28:25;;;;;;;;;;;22.30;57.20;;;;;;1557156;74;724;-60
2023/10/01 10:30:27;;;;;;;;;;;22.20;56.70;;;;;;1546224;75;1454;-59
2023/10/01 10:32:41;;;;;;;;;;;22.30;56.80;;;;;;1559700;74;692;-60
2023/10/01 10:34:47;;;;;;;;;;;22.20;56.50;;;;;;1551922;74;1660;-59
2023/10/01 10:36:54;;;;;;;;;;;22.20;55.60;;;;;;1554923;75;1639;-58
2023/10/01 10:38:55;;;;;;;;;;;22.20;55.90;;;;;;1562735;74;1539;-62
2023/10/01 10:41:05;;;;;;;;;;;22.20;56.10;;;;;;1556157;74;1907;-59
2023/10/01 10:43:04;;;;;;;;;;;22.20;56.20;;;;;;1557649;75;1687;-60
2023/10/01 10:45:22;;;;;;;;;;;22.20;56.60;;;;;;1549849;75;1328;-58
2023/10/01 10:47:24;;;;;;;;;;;22.20;55.50;;;;;;1556301;74;664;-59
2023/10/01 10:49:48;;;;;;;;;;;22.20;55.60;;;;;;1551638;74;785;-59
2023/10/01 10:51:48;;;;;;;;;;;22.20;54.30;;;;;;1551895;75;1637;-59
2023/10/01 10:53:52;;;;;;;;;;;22.20;55.80;;;;;;1551260;74;1469;-60
2023/10/01 10:56:02;;;;;;;;;;;22.30;56.50;;;;;;1551232;74;736;-59
2023/10/01 10:58:12;;;;;;;;;;;22.20;56.50;;;;;;1559088;75;687;-61
2023/10/01 11:00:23;;;;;;;;;;;22.20;56.30;;;;;;1548210;74;1944;-62
2023/10/01 11:02:16;;;;;;;;;;;22.30;57.00;;;;;;1555229;75;1706;-59
2023/10/01 11:04:19;;;;;;;;;;;22.20;56.90;;;;;;1549873;74;658;-59
2023/10/01 11:06:39;;;;;;;;;;;22.20;57.40;;;;;;1552882;74;768;-59
2023/10/01 11:08:35;;;;;;;;;;;22.20;56.30;;;;;;1544396;75;1643;-59
2023/10/01 11:10:44;;;;;;;;;;;22.20;56.90;;;;;;1559569;74;1674;-59
2023/10/01 11:12:54;;;;;;;;;;;22.30;56.70;;;;;;1549834;74;1680;-61
2023/10/01 11:15:19;;;;;;;;;;;22.20;56.50;;;;;;1553806;75;1692;-59
2023/10/01 11:17:00;;;;;;;;;;;22.20;55.70;;;;;;1565110;74;1383;-61
2023/10/01 11:19:12;;;;;;;;;;;22.20;55.20;;;;;;1551884;75;662;-62
2023/10/01 11:21:09;;;;;;;;;;;22.20;55.80;;;;;;1539726;74;1920;-59
2023/10/01 11:23:10;;;;;;;;;;;22.20;56.10;;;;;;1527931;76;1666;-59
2023/10/01 11:25:12;;;;;;;;;;;22.20;56.70;;;;;;1542922;75;887;-60
2023/10/01 11:27:22;;;;;;;;;;;22.20;56.50;;;;;;1545900;75;1474;-59
2023/10/01 11:29:24;;;;;;;;;;;22.20;56.50;;;;;;1545155;75;728;-59
2023/10/01 11:31:27;;;;;;;;;;;22.20;56.60;;;;;;1546023;75;1135;-59
2023/10/01 11:33:30;;;;;;;;;;;22.20;56.60;;;;;;1536451;75;761;-60
2023/10/01 11:35:32;;;;;;;;;;;22.30;56.90;;;;;;1535425;75;671;-59
2023/10/01 11:37:34;;;;;;;;;;;22.20;56.70;;;;;;1540027;75;699;-59
2023/10/01 11:39:40;;;;;;;;;;;22.20;56.80;;;;;;1550727;75;768;-62
2023/10/01 11:41:43;;;;;;;;;;;22.20;56.50;;;;;;1549901;75;1917;-62
2023/10/01 11:43:59;;;;;;;;;;;22.20;56.80;;;;;;1545689;75;716;-62
2023/10/01 11:46:20;;;;;;;;;;;22.20;56.40;;;;;;1543041;75;626;-61
2023/10/01 11:48:24;;;;;;;;;;;22.20;56.50;;;;;;1542630;75;875;-61
2023/10/01 11:50:26;;;;;;;;;;;22.20;56.60;;;;;;1533836;75;1849;-60
2023/10/01 11:52:28;;;;;;;;;;;22.20;56.60;;;;;;1542643;75;760;-59
2023/10/01 11:54:43;;;;;;;;;;;22.20;56.80;;;;;;1539066;75;652;-60
2023/10/01 11:56:46;;;;;;;;;;;22.20;56.20;;;;;;1546917;75;814;-61
2023/10/01 11:58:48;;;;;;;;;;;22.30;56.50;;;;;;1541512;75;729;-61
2023/10/01 12:00:52;;;;;;;;;;;22.10;56.60;;;;;;1545289;75;1956;-61
2023/10/01 12:02:58;;;;;;;;;;;22.10;56.80;;;;;;1545227;75;690;-61
2023/10/01 12:04:58;;;;;;;;;;;22.20;56.80;;;;;;1536434;75;1732;-61
2023/10/01 12:07:00;;;;;;;;;;;22.30;56.80;;;;;;1551214;75;787;-61
2023/10/01 12:09:02;;;;;;;;;;;22.20;56.90;;;;;;1540298;75;1463;-61
2023/10/01 12:12:03;;;;;;;;;;;22.20;56.50;;;;;;1544160;75;1152;-61
2023/10/01 12:13:08;;;;;;;;;;;22.10;56.60;;;;;;1521764;75;1331;-60
2023/10/01 12:17:30;;;;;;;;;;;22.20;56.80;;;;;;1541107;75;741;-60
2023/10/01 12:19:33;;;;;;;;;;;22.20;57.10;;;;;;1535570;75;739;-61
2023/10/01 12:21:34;;;;;;;;;;;22.20;56.90;;;;;;1549111;74;1927;-60
2023/10/01 12:23:36;;;;;;;;;;;22.20;56.90;;;;;;1566248;74;1532;-60
2023/10/01 12:25:52;;;;;;;;;;;22.20;57.10;;;;;;1569377;74;667;-60
2023/10/01 12:27:52;;;;;;;;;;;22.10;57.50;;;;;;1570142;74;1819;-61
2023/10/01 12:29:54;;;;;;;;;;;22.20;57.50;;;;;;1561069;74;679;-61
2023/10/01 12:31:59;;;;;;;;;;;22.10;57.40;;;;;;1572838;74;1102;-60
2023/10/01 12:33:59;;;;;;;;;;;22.20;57.50;;;;;;1560295;74;1721;-60
2023/10/01 12:36:03;;;;;;;;;;;22.20;57.30;;;;;;1574608;74;757;-60
2023/10/01 12:38:05;;;;;;;;;;;22.10;57.40;;;;;;1564482;74;1144;-60
2023/10/01 12:40:16;;;;;;;;;;;22.20;57.70;;;;;;1563379;74;1113;-61
2023/10/01 12:42:17;;;;;;;;;;;22.20;57.40;;;;;;1574411;74;1936;-60
2023/10/01 12:44:34;;;;;;;;;;;22.20;57.40;;;;;;1562034;74;632;-60
2023/10/01 12:46:51;;;;;;;;;;;22.20;57.50;;;;;;1566698;74;617;-59
2023/10/01 12:48:44;;;;;;;;;;;22.20;57.50;;;;;;1562221;74;1525;-60
2023/10/01 12:50:59;;;;;;;;;;;22.20;57.40;;;;;;1571809;74;1631;-60
2023/10/01 12:52:48;;;;;;;;;;;22.20;57.50;;;;;;1571127;74;1742;-60
2023/10/01 12:54:50;;;;;;;;;;;22.10;57.50;;;;;;1567250;74;755;-60
2023/10/01 12:57:02;;;;;;;;;;;22.20;57.50;;;;;;1557034;74;864;-60